Time;durP1;ratioP1;P1;durP2;ratioP2;P2;SDS_P1;SDS_P2;PMS_P1;PMS_P2;Temp;Humidity;BMP_temperature;BMP_pressure;BME280_temperature;BME280_humidity;BME280_pressure;Samples;Min_cycle;Max_cycle;Signal;HPM_P1;HPM_P2
2023/06/03 00:01:27;;;;;;;9.47;8.67;;;8.30;76.70;;;;;;5012022;28;20173;-86
2023/06/03 00:03:52;;;;;;;9.40;8.70;;;8.20;76.90;;;;;;5012185;28;20263;-87
2023/06/03 00:06:18;;;;;;;12.47;9.10;;;8.20;77.00;;;;;;5012426;28;20185;-87
2023/06/03 00:08:44;;;;;;;22.53;21.17;;;8.30;77.00;;;;;;5012030;28;20173;-87
2023/06/03 00:11:11;;;;;;;22.93;21.53;;;8.30;77.00;;;;;;5013311;28;20570;-86
2023/06/03 00:13:37;;;;;;;22.80;21.40;;;8.30;77.10;;;;;;5013140;28;20239;-87
2023/06/03 00:16:03;;;;;;;23.00;21.53;;;8.30;77.20;;;;;;5013096;28;20536;-87
2023/06/03 00:18:28;;;;;;;21.93;20.63;;;8.30;77.10;;;;;;5013062;28;20185;-87
2023/06/03 00:20:55;;;;;;;21.57;20.27;;;8.30;77.10;;;;;;5013265;28;20173;-86
2023/06/03 00:23:31;;;;;;;22.30;20.93;;;8.30;77.10;;;;;;5012956;28;20197;-87
2023/06/03 00:25:57;;;;;;;21.30;19.80;;;8.30;77.10;;;;;;5012985;28;20553;-87
2023/06/03 00:28:23;;;;;;;21.57;20.10;;;8.30;77.20;;;;;;5015286;28;20169;-86
2023/06/03 00:30:48;;;;;;;22.10;20.60;;;8.40;77.10;;;;;;5015231;28;20220;-86
2023/06/03 00:33:14;;;;;;;9.40;7.90;;;8.40;77.10;;;;;;5016259;28;20255;-86
2023/06/03 00:35:39;;;;;;;8.60;7.80;;;8.30;77.20;;;;;;5015205;28;20185;-87
2023/06/03 00:38:05;;;;;;;9.97;7.77;;;8.40;77.40;;;;;;5015109;28;20180;-86
2023/06/03 00:40:30;;;;;;;8.27;7.57;;;8.30;77.40;;;;;;5015044;28;20555;-86
2023/06/03 00:42:56;;;;;;;8.20;7.60;;;8.30;77.50;;;;;;5015222;28;20205;-86
2023/06/03 00:45:21;;;;;;;8.20;7.70;;;8.30;77.50;;;;;;5016853;28;20603;-87
2023/06/03 00:47:48;;;;;;;8.00;7.30;;;8.30;77.60;;;;;;5015097;28;20177;-86
2023/06/03 00:50:14;;;;;;;11.03;7.63;;;8.30;77.60;;;;;;5016249;28;20209;-86
2023/06/03 00:52:40;;;;;;;7.97;7.37;;;8.30;77.60;;;;;;5014757;28;20220;-86
2023/06/03 00:55:06;;;;;;;9.63;8.83;;;8.30;77.40;;;;;;5014789;28;20177;-87
2023/06/03 00:57:32;;;;;;;9.03;8.20;;;8.30;77.40;;;;;;5016110;28;20178;-86
2023/06/03 00:59:58;;;;;;;8.47;7.77;;;8.30;77.40;;;;;;5016020;28;20690;-86
2023/06/03 01:02:26;;;;;;;8.87;8.10;;;8.30;77.50;;;;;;5014719;28;20304;-87
2023/06/03 01:04:55;;;;;;;9.77;8.87;;;8.30;77.60;;;;;;5016001;28;20174;-87
2023/06/03 01:07:42;;;;;;;8.30;7.70;;;8.30;77.70;;;;;;5014752;28;20185;-87
2023/06/03 01:10:29;;;;;;;7.87;7.37;;;8.20;77.70;;;;;;5014888;28;20192;-86
2023/06/03 01:13:16;;;;;;;8.30;7.77;;;8.20;77.90;;;;;;5014710;28;20307;-86
2023/06/03 01:15:44;;;;;;;8.60;8.00;;;8.10;77.90;;;;;;5014507;28;20256;-85
2023/06/03 01:18:12;;;;;;;8.43;7.80;;;8.10;78.00;;;;;;5014457;28;20209;-86
2023/06/03 01:20:38;;;;;;;8.40;7.90;;;8.00;78.10;;;;;;5014292;28;20223;-86
2023/06/03 01:23:23;;;;;;;8.57;7.97;;;8.00;78.30;;;;;;5015419;28;20205;-86
2023/06/03 01:25:52;;;;;;;7.80;7.20;;;7.90;78.00;;;;;;5015483;28;20158;-87
2023/06/03 01:28:21;;;;;;;7.77;7.27;;;7.90;78.30;;;;;;5015419;28;20173;-86
2023/06/03 01:30:47;;;;;;;8.77;8.17;;;7.90;78.10;;;;;;5015327;28;20678;-86
2023/06/03 01:33:14;;;;;;;8.83;8.30;;;7.70;77.90;;;;;;5015132;28;20223;-86
2023/06/03 01:35:41;;;;;;;8.80;8.23;;;7.80;78.10;;;;;;5014082;28;20181;-86
2023/06/03 01:38:07;;;;;;;9.47;8.87;;;7.70;77.70;;;;;;5015104;28;20205;-86
2023/06/03 01:40:34;;;;;;;10.03;9.43;;;7.70;77.60;;;;;;5015217;28;20173;-86
2023/06/03 01:42:59;;;;;;;10.27;9.40;;;7.60;77.40;;;;;;5015147;28;20232;-86
2023/06/03 01:45:25;;;;;;;10.13;9.23;;;7.60;77.20;;;;;;5013966;28;20185;-87
2023/06/03 01:47:51;;;;;;;9.53;8.87;;;7.70;77.30;;;;;;5013848;28;20185;-87
2023/06/03 01:50:17;;;;;;;10.63;9.90;;;7.70;77.10;;;;;;5013849;28;20583;-87
2023/06/03 01:52:44;;;;;;;10.70;9.90;;;7.60;77.00;;;;;;5014737;28;20217;-86
2023/06/03 01:55:10;;;;;;;10.40;9.80;;;7.60;76.70;;;;;;5013825;28;20188;-87
2023/06/03 01:57:36;;;;;;;10.30;9.70;;;7.60;76.70;;;;;;5013671;28;20551;-86
2023/06/03 02:00:06;;;;;;;10.30;9.57;;;7.60;76.60;;;;;;5013636;28;20178;-86
2023/06/03 02:02:32;;;;;;;11.37;10.57;;;7.50;76.40;;;;;;5014785;28;20275;-86
2023/06/03 02:04:57;;;;;;;11.17;10.40;;;7.60;76.30;;;;;;5013521;28;20184;-86
2023/06/03 02:07:25;;;;;;;10.87;10.23;;;7.60;76.10;;;;;;5013490;28;20177;-86
2023/06/03 02:09:51;;;;;;;11.30;10.43;;;7.50;76.40;;;;;;5013373;28;20223;-86
2023/06/03 02:12:17;;;;;;;11.60;10.80;;;7.40;76.40;;;;;;5013220;28;20244;-86
2023/06/03 02:14:42;;;;;;;25.17;23.57;;;7.30;76.40;;;;;;5013390;28;20184;-87
2023/06/03 02:17:08;;;;;;;26.80;25.13;;;7.30;76.50;;;;;;5013297;28;20248;-86
2023/06/03 02:19:34;;;;;;;27.07;25.27;;;7.30;77.20;;;;;;5014467;28;20174;-86
2023/06/03 02:22:00;;;;;;;27.47;25.77;;;7.30;76.90;;;;;;5013145;28;20195;-87
2023/06/03 02:24:28;;;;;;;26.73;25.03;;;7.30;76.90;;;;;;5014454;28;20224;-86
2023/06/03 02:26:56;;;;;;;27.77;25.93;;;7.30;76.70;;;;;;5013195;28;20184;-86
2023/06/03 02:29:25;;;;;;;25.97;24.27;;;7.30;76.50;;;;;;5013059;28;20181;-86
2023/06/03 02:31:52;;;;;;;26.13;24.53;;;7.30;76.50;;;;;;5012881;28;20217;-86
2023/06/03 02:34:18;;;;;;;25.87;24.27;;;7.30;76.60;;;;;;5013119;28;20264;-86
2023/06/03 02:36:45;;;;;;;26.60;25.00;;;7.30;76.60;;;;;;5013060;28;20248;-87
2023/06/03 02:39:11;;;;;;;12.20;11.20;;;7.20;76.70;;;;;;5013067;28;20173;-87
2023/06/03 02:41:38;;;;;;;10.17;9.53;;;7.20;77.10;;;;;;5012838;28;20213;-87
2023/06/03 02:44:03;;;;;;;10.13;9.27;;;7.20;77.60;;;;;;5014126;28;20192;-87
2023/06/03 02:46:29;;;;;;;9.93;9.07;;;7.10;77.80;;;;;;5012821;28;20659;-87
2023/06/03 02:48:55;;;;;;;9.10;8.60;;;7.10;77.80;;;;;;5012719;28;20216;-87
2023/06/03 02:51:21;;;;;;;9.10;8.57;;;7.10;77.80;;;;;;5012032;28;20201;-86
2023/06/03 02:53:46;;;;;;;9.63;9.03;;;7.20;78.20;;;;;;5012767;28;20181;-87
2023/06/03 02:56:12;;;;;;;9.20;8.60;;;7.00;78.50;;;;;;5013166;28;20276;-86
2023/06/03 02:58:39;;;;;;;10.33;9.53;;;7.00;78.70;;;;;;5012638;28;20169;-86
2023/06/03 03:01:05;;;;;;;9.33;8.73;;;6.90;78.60;;;;;;5012670;28;20227;-86
2023/06/03 03:03:35;;;;;;;8.20;7.70;;;6.80;78.90;;;;;;5013937;28;20189;-86
2023/06/03 03:06:03;;;;;;;8.77;8.27;;;6.80;79.00;;;;;;5013989;28;20157;-87
2023/06/03 03:08:29;;;;;;;8.70;8.10;;;6.80;79.00;;;;;;5012434;28;20181;-85
2023/06/03 03:10:55;;;;;;;8.97;8.10;;;6.80;79.40;;;;;;5012346;28;20169;-86
2023/06/03 03:13:21;;;;;;;9.40;8.57;;;7.00;79.50;;;;;;5013499;28;20208;-86
2023/06/03 03:15:47;;;;;;;9.40;8.60;;;7.30;78.80;;;;;;5012304;28;20185;-86
2023/06/03 03:18:13;;;;;;;9.60;8.90;;;7.50;78.80;;;;;;5012289;28;20181;-86
2023/06/03 03:20:39;;;;;;;9.33;8.57;;;7.80;77.40;;;;;;5013520;28;20177;-87
2023/06/03 03:23:06;;;;;;;9.13;8.53;;;8.10;76.90;;;;;;5013502;28;20204;-87
2023/06/03 03:25:31;;;;;;;8.97;8.47;;;8.20;75.50;;;;;;5013467;28;20196;-86
2023/06/03 03:27:58;;;;;;;10.53;9.83;;;8.00;74.40;;;;;;5012276;28;20648;-86
2023/06/03 03:30:24;;;;;;;10.10;9.50;;;7.70;74.60;;;;;;5013353;28;20189;-87
2023/06/03 03:32:49;;;;;;;9.77;9.07;;;7.60;74.80;;;;;;5013292;28;20213;-86
2023/06/03 03:35:18;;;;;;;8.70;8.17;;;7.50;74.90;;;;;;5012173;28;20184;-87
2023/06/03 03:37:44;;;;;;;8.97;8.37;;;7.60;75.20;;;;;;5012164;28;20256;-86
2023/06/03 03:40:17;;;;;;;8.77;8.17;;;7.60;75.40;;;;;;5013319;28;20176;-86
2023/06/03 03:42:50;;;;;;;8.80;8.10;;;7.70;75.50;;;;;;5013387;28;20198;-86
2023/06/03 03:45:18;;;;;;;10.73;9.80;;;7.90;75.60;;;;;;5013421;28;20170;-87
2023/06/03 03:47:44;;;;;;;9.40;8.80;;;7.80;75.80;;;;;;5012082;28;20593;-86
2023/06/03 03:50:37;;;;;;;8.50;7.70;;;7.80;76.60;;;;;;5012143;28;20178;-87
2023/06/03 03:53:04;;;;;;;8.47;7.87;;;8.00;77.00;;;;;;5011971;28;20247;-86
2023/06/03 03:55:30;;;;;;;8.20;7.70;;;8.20;76.60;;;;;;5012004;28;20647;-87
2023/06/03 03:57:56;;;;;;;8.10;7.50;;;8.30;76.50;;;;;;5011983;28;20227;-86
2023/06/03 04:00:22;;;;;;;8.53;7.73;;;8.50;76.20;;;;;;5013425;28;20659;-86
2023/06/03 04:02:53;;;;;;;9.23;8.63;;;8.60;75.60;;;;;;5013104;28;20201;-86
2023/06/03 04:05:22;;;;;;;10.40;9.23;;;8.60;75.00;;;;;;5016180;28;20180;-86
2023/06/03 04:07:48;;;;;;;9.90;8.93;;;8.30;75.80;;;;;;5015768;28;20691;-86
2023/06/03 04:10:14;;;;;;;9.60;8.00;;;8.50;77.10;;;;;;5015787;28;20268;-87
2023/06/03 04:12:39;;;;;;;8.30;7.60;;;8.70;77.00;;;;;;5016809;28;20217;-86
2023/06/03 04:15:08;;;;;;;7.33;6.93;;;8.80;76.90;;;;;;5016792;28;20228;-86
2023/06/03 04:17:37;;;;;;;17.43;16.37;;;8.90;75.80;;;;;;5015620;28;20529;-86
2023/06/03 04:20:09;;;;;;;19.43;17.77;;;9.00;75.30;;;;;;5015639;28;20541;-86
2023/06/03 04:22:35;;;;;;;18.67;17.37;;;9.00;74.70;;;;;;5015277;28;20247;-87
2023/06/03 04:25:11;;;;;;;18.13;17.03;;;9.10;74.70;;;;;;5016679;28;20177;-86
2023/06/03 04:27:36;;;;;;;18.57;17.23;;;9.10;74.90;;;;;;5015365;28;20649;-87
2023/06/03 04:30:04;;;;;;;18.33;17.17;;;9.00;75.00;;;;;;5016522;28;20264;-87
2023/06/03 04:32:29;;;;;;;18.40;17.00;;;9.10;75.00;;;;;;5016404;28;20212;-86
2023/06/03 04:34:55;;;;;;;17.77;16.67;;;9.10;75.20;;;;;;5016201;28;20181;-87
2023/06/03 04:37:21;;;;;;;20.10;18.80;;;9.10;75.20;;;;;;5016552;28;20181;-86
2023/06/03 04:39:48;;;;;;;18.30;16.90;;;9.00;77.30;;;;;;5016386;28;20181;-87
2023/06/03 04:42:15;;;;;;;17.67;16.47;;;8.90;78.80;;;;;;5016238;28;20251;-86
2023/06/03 04:44:41;;;;;;;15.30;14.03;;;8.80;79.70;;;;;;5015924;28;20272;-87
2023/06/03 04:47:10;;;;;;;17.43;16.23;;;8.80;80.60;;;;;;5014983;28;20268;-86
2023/06/03 04:49:40;;;;;;;14.53;13.57;;;8.80;81.00;;;;;;5016173;28;20265;-87
2023/06/03 04:52:09;;;;;;;14.77;13.60;;;8.80;81.80;;;;;;5014793;28;20228;-87
2023/06/03 04:54:36;;;;;;;15.90;14.50;;;8.90;82.50;;;;;;5014883;28;20270;-87
2023/06/03 04:57:01;;;;;;;14.90;13.93;;;8.90;82.90;;;;;;5016031;28;20200;-87
2023/06/03 04:59:27;;;;;;;14.60;13.60;;;8.90;82.60;;;;;;5014803;28;20651;-87
2023/06/03 05:01:52;;;;;;;15.40;13.77;;;8.90;82.80;;;;;;5014706;28;20558;-87
2023/06/03 05:04:19;;;;;;;7.47;6.07;;;9.00;83.10;;;;;;5015891;28;20184;-87
2023/06/03 05:06:46;;;;;;;6.50;5.60;;;9.00;83.20;;;;;;5014646;28;20200;-87
2023/06/03 05:09:12;;;;;;;6.13;5.53;;;9.20;83.00;;;;;;5014655;28;20177;-85
2023/06/03 05:11:38;;;;;;;7.07;5.90;;;9.20;82.80;;;;;;5014543;28;20219;-86
2023/06/03 05:14:04;;;;;;;6.80;6.20;;;9.30;82.60;;;;;;5014236;28;20224;-87
2023/06/03 05:16:29;;;;;;;6.70;5.70;;;9.30;82.30;;;;;;5015758;28;20208;-87
2023/06/03 05:18:55;;;;;;;6.77;5.60;;;9.40;82.10;;;;;;5014390;28;20196;-86
2023/06/03 05:21:20;;;;;;;6.77;6.07;;;9.50;82.00;;;;;;5014827;28;20176;-86
2023/06/03 05:23:46;;;;;;;7.53;5.80;;;9.70;81.90;;;;;;5014185;28;20193;-87
2023/06/03 05:26:12;;;;;;;9.83;5.50;;;9.70;81.40;;;;;;5014219;28;20178;-86
2023/06/03 05:28:37;;;;;;;6.20;5.70;;;9.80;81.50;;;;;;5015456;28;20180;-86
2023/06/03 05:31:03;;;;;;;6.03;5.60;;;10.00;81.70;;;;;;5014116;28;20647;-87
2023/06/03 05:33:32;;;;;;;9.30;6.40;;;10.20;81.90;;;;;;5015365;28;20275;-86
2023/06/03 05:35:58;;;;;;;6.50;5.90;;;10.30;81.50;;;;;;5014077;28;20201;-87
2023/06/03 05:38:24;;;;;;;6.63;6.13;;;10.50;81.60;;;;;;5014094;28;20651;-87
2023/06/03 05:40:51;;;;;;;5.87;5.27;;;10.70;81.20;;;;;;5015159;28;20265;-87
2023/06/03 05:43:17;;;;;;;6.90;6.30;;;10.70;80.50;;;;;;5015434;28;20197;-86
2023/06/03 05:45:43;;;;;;;7.57;6.30;;;10.90;80.60;;;;;;5013928;28;20212;-87
2023/06/03 05:48:09;;;;;;;6.90;6.40;;;11.00;80.60;;;;;;5015143;28;20648;-87
2023/06/03 05:50:38;;;;;;;7.03;6.50;;;11.30;80.40;;;;;;5013825;28;20618;-87
2023/06/03 05:53:04;;;;;;;7.53;6.57;;;11.50;80.30;;;;;;5014814;28;20206;-87
2023/06/03 05:55:30;;;;;;;7.33;6.30;;;11.60;79.70;;;;;;5013753;28;20227;-87
2023/06/03 05:57:56;;;;;;;6.33;5.77;;;11.70;79.50;;;;;;5014874;28;20595;-87
2023/06/03 06:00:21;;;;;;;6.90;6.40;;;11.90;78.50;;;;;;5014788;28;20204;-87
2023/06/03 06:02:50;;;;;;;8.90;6.80;;;12.00;77.80;;;;;;5014841;28;20276;-86
2023/06/03 06:05:16;;;;;;;7.87;7.27;;;12.10;77.00;;;;;;5013544;28;20247;-87
2023/06/03 06:07:41;;;;;;;8.33;7.50;;;12.20;77.10;;;;;;5013540;28;20225;-87
2023/06/03 06:10:07;;;;;;;7.67;6.83;;;12.50;77.40;;;;;;5013508;28;20181;-86
2023/06/03 06:12:32;;;;;;;7.67;7.17;;;12.50;75.20;;;;;;5013438;28;20312;-87
2023/06/03 06:14:58;;;;;;;8.80;8.30;;;12.60;74.00;;;;;;5013418;28;20189;-87
2023/06/03 06:17:24;;;;;;;8.40;7.57;;;12.70;73.30;;;;;;5013434;28;20184;-87
2023/06/03 06:19:49;;;;;;;7.97;7.47;;;12.90;73.40;;;;;;5014578;28;20193;-87
2023/06/03 06:22:15;;;;;;;9.40;8.30;;;13.00;72.80;;;;;;5013470;28;20280;-87
2023/06/03 06:24:42;;;;;;;11.03;8.20;;;13.10;72.80;;;;;;5012777;28;20228;-87
2023/06/03 06:27:09;;;;;;;10.33;8.40;;;13.20;72.20;;;;;;5012886;28;20668;-87
2023/06/03 06:29:35;;;;;;;10.30;9.40;;;13.30;71.60;;;;;;5013199;28;20173;-87
2023/06/03 06:32:01;;;;;;;9.37;8.57;;;13.40;70.80;;;;;;5012888;28;20247;-87
2023/06/03 06:34:31;;;;;;;9.50;8.80;;;13.50;70.30;;;;;;5013819;28;20178;-87
2023/06/03 06:36:58;;;;;;;9.80;9.00;;;13.60;69.70;;;;;;5013101;28;20554;-87
2023/06/03 06:39:33;;;;;;;11.03;10.00;;;13.80;69.10;;;;;;5012902;28;20174;-87
2023/06/03 06:42:26;;;;;;;10.23;9.53;;;13.90;67.60;;;;;;5014072;28;20192;-87
2023/06/03 06:44:52;;;;;;;10.33;9.63;;;14.00;65.30;;;;;;5014052;28;20235;-87
2023/06/03 06:47:23;;;;;;;12.17;11.27;;;13.90;62.70;;;;;;5012932;28;20209;-87
2023/06/03 06:49:49;;;;;;;10.70;10.00;;;14.00;64.70;;;;;;5013011;28;20686;-87
2023/06/03 06:52:15;;;;;;;10.60;9.90;;;14.00;63.80;;;;;;5012832;28;20209;-87
2023/06/03 06:54:42;;;;;;;11.73;10.50;;;14.20;62.10;;;;;;5012785;28;20180;-87
2023/06/03 06:57:07;;;;;;;11.97;11.10;;;14.40;62.20;;;;;;5012710;28;20203;-88
2023/06/03 06:59:33;;;;;;;12.90;12.00;;;14.50;62.00;;;;;;5012689;28;20185;-88
2023/06/03 07:01:59;;;;;;;11.55;10.85;;;14.50;60.60;;;;;;5012535;28;20213;-87
2023/06/03 07:04:25;;;;;;;13.35;12.50;;;14.30;61.00;;;;;;5013811;28;20181;-87
2023/06/03 07:06:50;;;;;;;13.33;12.40;;;14.20;61.10;;;;;;5012593;28;20182;-88
2023/06/03 07:09:16;;;;;;;14.13;13.25;;;14.20;61.00;;;;;;5012531;28;20664;-88
2023/06/03 07:11:46;;;;;;;13.90;12.93;;;14.30;60.70;;;;;;5013579;28;20699;-88
2023/06/03 07:14:12;;;;;;;14.98;13.50;;;14.50;57.10;;;;;;5012410;28;20185;-88
2023/06/03 07:16:38;;;;;;;13.93;13.00;;;14.80;57.20;;;;;;5013619;28;20184;-88
2023/06/03 07:19:05;;;;;;;14.65;13.15;;;14.80;57.60;;;;;;5012487;28;20181;-88
2023/06/03 07:21:32;;;;;;;14.75;13.27;;;15.10;58.50;;;;;;5012309;28;20177;-88
2023/06/03 07:23:57;;;;;;;13.32;12.50;;;15.20;57.70;;;;;;5012350;28;20259;-88
2023/06/03 07:26:33;;;;;;;13.98;12.88;;;15.40;57.10;;;;;;5012364;28;20227;-88
2023/06/03 07:28:59;;;;;;;12.73;11.75;;;15.20;57.60;;;;;;5012407;28;20227;-88
2023/06/03 07:31:24;;;;;;;12.57;11.88;;;15.40;55.90;;;;;;5013306;28;20185;-88
2023/06/03 07:33:53;;;;;;;12.73;11.82;;;15.30;55.20;;;;;;5012364;28;20260;-88
2023/06/03 07:36:21;;;;;;;13.10;12.20;;;15.40;53.80;;;;;;5013935;28;20181;-87
2023/06/03 07:39:06;;;;;;;12.98;12.18;;;15.50;56.40;;;;;;5017600;28;20183;-87
2023/06/03 07:41:35;;;;;;;12.55;11.75;;;15.20;55.40;;;;;;5017405;28;20192;-87
2023/06/03 07:44:07;;;;;;;12.00;11.30;;;15.50;53.40;;;;;;5016177;28;20184;-88
2023/06/03 07:46:54;;;;;;;12.50;11.63;;;15.60;50.30;;;;;;5016182;28;20181;-88
2023/06/03 07:49:21;;;;;;;12.65;11.70;;;15.40;52.60;;;;;;5016214;28;20261;-87
2023/06/03 07:51:49;;;;;;;12.52;11.45;;;15.40;54.90;;;;;;5015817;28;20247;-87
2023/06/03 07:54:15;;;;;;;13.00;11.68;;;15.70;51.80;;;;;;5016077;28;20524;-87
2023/06/03 07:56:41;;;;;;;12.77;11.77;;;15.80;52.20;;;;;;5015974;28;20207;-88
2023/06/03 07:59:11;;;;;;;11.88;11.07;;;15.80;52.60;;;;;;5015890;28;20170;-88
2023/06/03 08:01:38;;;;;;;12.73;11.85;;;15.80;49.60;;;;;;5015826;28;20197;-87
2023/06/03 08:04:14;;;;;;;12.50;11.50;;;16.00;51.50;;;;;;5017022;28;20182;-88
2023/06/03 08:06:44;;;;;;;12.35;11.50;;;16.30;48.70;;;;;;5015786;28;20662;-87
2023/06/03 08:09:15;;;;;;;12.23;11.43;;;16.40;48.10;;;;;;5016608;28;20585;-88
2023/06/03 08:11:40;;;;;;;11.95;11.20;;;16.60;50.70;;;;;;5015723;28;20288;-87
2023/06/03 08:14:06;;;;;;;12.35;11.35;;;16.60;50.90;;;;;;5015608;28;20561;-88
2023/06/03 08:16:35;;;;;;;12.02;11.23;;;16.80;50.50;;;;;;5015743;28;20228;-88
2023/06/03 08:19:01;;;;;;;12.95;11.88;;;16.90;49.50;;;;;;5015707;28;20547;-88
2023/06/03 08:21:33;;;;;;;12.40;11.50;;;16.90;48.70;;;;;;5015546;28;20198;-87
2023/06/03 08:23:59;;;;;;;12.50;11.80;;;17.20;46.30;;;;;;5015619;28;20717;-88
2023/06/03 08:26:25;;;;;;;12.07;11.38;;;17.20;47.00;;;;;;5015843;28;20178;-88
2023/06/03 08:28:50;;;;;;;12.93;11.68;;;17.30;47.00;;;;;;5015795;28;20173;-88
2023/06/03 08:31:16;;;;;;;12.32;11.52;;;17.50;47.40;;;;;;5015250;28;20188;-87
2023/06/03 08:33:41;;;;;;;12.77;11.98;;;17.50;46.90;;;;;;5016797;28;20182;-88
2023/06/03 08:36:07;;;;;;;12.80;12.00;;;17.80;47.00;;;;;;5015245;28;20173;-88
2023/06/03 08:38:32;;;;;;;13.43;12.10;;;17.80;45.00;;;;;;5016496;28;20181;-88
2023/06/03 08:40:59;;;;;;;12.75;12.00;;;17.90;43.00;;;;;;5016003;28;20178;-87
2023/06/03 08:43:32;;;;;;;12.63;11.88;;;17.90;43.30;;;;;;5016288;28;20201;-87
2023/06/03 08:46:27;;;;;;;13.30;12.27;;;17.80;43.70;;;;;;5015182;28;20174;-88
2023/06/03 08:49:04;;;;;;;13.43;12.55;;;17.90;46.40;;;;;;4997110;28;20236;-88
2023/06/03 08:51:38;;;;;;;12.80;11.98;;;17.90;43.60;;;;;;5014895;28;20173;-88
2023/06/03 08:54:13;;;;;;;13.13;12.18;;;18.00;44.50;;;;;;5016177;28;20658;-88
2023/06/03 08:56:44;;;;;;;13.50;12.70;;;17.90;43.20;;;;;;5016080;28;20674;-88
2023/06/03 08:59:15;;;;;;;13.95;12.95;;;18.10;45.30;;;;;;5014782;28;20270;-88
2023/06/03 09:01:44;;;;;;;13.13;12.30;;;18.20;43.50;;;;;;5015397;28;20227;-88
2023/06/03 09:04:13;;;;;;;13.55;12.35;;;18.10;44.00;;;;;;5015993;28;20173;-87
2023/06/03 09:06:44;;;;;;;13.65;12.68;;;18.20;44.20;;;;;;5016201;28;20178;-88
2023/06/03 09:09:11;;;;;;;13.27;12.35;;;18.30;44.70;;;;;;5014998;28;20256;-87
2023/06/03 09:11:38;;;;;;;13.48;12.57;;;18.30;43.20;;;;;;5014437;28;20217;-87
2023/06/03 09:14:05;;;;;;;13.63;12.73;;;18.20;42.20;;;;;;5014477;28;20193;-88
2023/06/03 09:16:32;;;;;;;14.45;13.55;;;18.20;42.90;;;;;;5016511;28;20162;-88
2023/06/03 09:18:59;;;;;;;14.57;13.30;;;18.30;44.20;;;;;;5014511;28;20181;-88
2023/06/03 09:21:25;;;;;;;13.48;12.68;;;18.50;43.70;;;;;;5015569;28;20177;-87
2023/06/03 09:23:51;;;;;;;13.82;12.70;;;18.50;41.70;;;;;;5015679;28;20166;-87
2023/06/03 09:26:17;;;;;;;14.15;12.90;;;18.40;43.30;;;;;;5014424;28;20178;-87
2023/06/03 09:28:44;;;;;;;13.15;12.43;;;18.50;44.30;;;;;;5015627;28;20170;-87
2023/06/03 09:31:10;;;;;;;13.57;12.57;;;18.60;43.50;;;;;;5015664;28;20252;-87
2023/06/03 09:33:36;;;;;;;13.30;12.40;;;18.60;43.60;;;;;;5015320;28;20717;-87
2023/06/03 09:36:13;;;;;;;14.40;13.18;;;18.70;43.80;;;;;;5014157;28;20208;-87
2023/06/03 09:38:54;;;;;;;13.85;12.95;;;18.60;41.90;;;;;;5014263;28;20165;-86
2023/06/03 09:41:25;;;;;;;13.90;13.00;;;18.60;41.30;;;;;;5015265;28;20146;-87
2023/06/03 09:44:01;;;;;;;14.30;13.40;;;18.50;43.90;;;;;;5015653;28;20191;-87
2023/06/03 09:46:29;;;;;;;17.35;12.70;;;18.60;43.20;;;;;;5014022;28;20162;-87
2023/06/03 09:49:17;;;;;;;13.38;12.55;;;18.60;42.70;;;;;;5014235;28;20204;-87
2023/06/03 09:51:47;;;;;;;13.52;12.52;;;18.70;41.30;;;;;;5013784;28;20201;-87
2023/06/03 09:54:14;;;;;;;13.93;12.93;;;18.80;41.80;;;;;;5015098;28;20181;-87
2023/06/03 09:56:39;;;;;;;13.15;12.40;;;18.70;40.70;;;;;;5014993;28;20170;-87
2023/06/03 09:59:23;;;;;;;13.50;12.65;;;18.90;41.60;;;;;;5015185;28;20525;-87
2023/06/03 10:01:53;;;;;;;13.80;12.88;;;19.00;40.20;;;;;;5013625;28;20197;-88
2023/06/03 10:04:36;;;;;;;13.52;12.55;;;19.10;41.30;;;;;;5013645;28;20184;-87
2023/06/03 10:07:10;;;;;;;13.50;12.60;;;19.00;40.60;;;;;;5014829;28;20252;-88
2023/06/03 10:09:36;;;;;;;13.23;12.20;;;19.00;40.70;;;;;;5014697;28;20195;-87
2023/06/03 10:12:02;;;;;;;13.73;12.63;;;19.10;42.30;;;;;;5014474;28;20201;-87
2023/06/03 10:14:28;;;;;;;13.30;12.40;;;19.20;40.10;;;;;;5014017;28;20220;-87
2023/06/03 10:17:07;;;;;;;13.52;12.73;;;19.20;39.50;;;;;;5014705;28;20647;-87
2023/06/03 10:19:34;;;;;;;13.43;12.57;;;19.20;40.00;;;;;;5013347;28;20559;-87
2023/06/03 10:22:00;;;;;;;13.35;12.52;;;19.10;39.30;;;;;;5013346;28;20205;-87
2023/06/03 10:24:27;;;;;;;13.75;12.85;;;19.20;38.20;;;;;;5013219;28;20177;-87
2023/06/03 10:26:54;;;;;;;13.93;12.98;;;19.20;39.80;;;;;;5013208;28;20189;-87
2023/06/03 10:29:20;;;;;;;13.68;12.80;;;19.20;41.60;;;;;;5013444;28;20670;-87
2023/06/03 10:31:49;;;;;;;13.48;12.60;;;19.40;40.50;;;;;;5014700;28;20201;-87
2023/06/03 10:34:15;;;;;;;13.70;12.82;;;19.60;38.20;;;;;;5014291;28;20648;-87
2023/06/03 10:36:48;;;;;;;14.02;13.10;;;19.60;37.80;;;;;;5014481;28;20181;-87
2023/06/03 10:39:14;;;;;;;15.00;13.73;;;19.70;37.70;;;;;;5013085;28;20172;-87
2023/06/03 10:41:40;;;;;;;15.07;13.75;;;19.80;39.60;;;;;;5012883;28;20675;-86
2023/06/03 10:44:06;;;;;;;14.02;13.20;;;20.00;39.70;;;;;;5012893;28;20192;-87
2023/06/03 10:46:40;;;;;;;14.13;13.32;;;20.10;39.00;;;;;;5012846;28;20177;-87
2023/06/03 10:49:07;;;;;;;16.55;15.38;;;19.90;39.70;;;;;;5014223;28;20580;-86
2023/06/03 10:51:52;;;;;;;16.13;15.13;;;19.80;39.60;;;;;;5013848;28;20286;-86
2023/06/03 10:54:30;;;;;;;23.23;21.42;;;19.90;41.00;;;;;;5012868;28;20172;-86
2023/06/03 10:57:12;;;;;;;22.13;20.63;;;20.00;39.60;;;;;;5013616;28;20168;-86
2023/06/03 10:59:43;;;;;;;23.05;21.45;;;20.00;38.20;;;;;;5012615;28;20185;-86
2023/06/03 11:02:09;;;;;;;22.20;20.67;;;19.90;38.70;;;;;;5012599;28;20197;-87
2023/06/03 11:04:36;;;;;;;22.33;20.83;;;20.00;39.40;;;;;;5012772;28;20177;-86
2023/06/03 11:07:06;;;;;;;22.65;21.25;;;20.10;39.20;;;;;;5012735;28;20181;-86
2023/06/03 11:09:39;;;;;;;22.65;21.25;;;20.10;38.00;;;;;;5012557;28;20201;-86
2023/06/03 11:12:13;;;;;;;23.20;21.10;;;20.20;39.10;;;;;;5011682;28;20223;-86
2023/06/03 11:14:50;;;;;;;22.65;21.17;;;20.40;39.50;;;;;;5013992;28;20154;-86
2023/06/03 11:17:18;;;;;;;21.45;20.20;;;20.70;40.00;;;;;;5012557;28;20206;-87
2023/06/03 11:19:55;;;;;;;22.42;21.00;;;20.70;38.50;;;;;;5012492;28;20177;-87
2023/06/03 11:22:27;;;;;;;21.00;19.45;;;20.70;37.60;;;;;;5012317;28;20193;-86
2023/06/03 11:24:53;;;;;;;16.45;15.38;;;20.70;37.20;;;;;;5012739;28;20554;-86
2023/06/03 11:27:19;;;;;;;16.25;15.18;;;20.60;37.20;;;;;;5013688;28;20228;-86
2023/06/03 11:29:48;;;;;;;17.00;15.60;;;20.60;38.60;;;;;;5013671;28;20173;-86
2023/06/03 11:32:15;;;;;;;16.67;15.48;;;20.50;37.20;;;;;;5013459;28;20233;-86
2023/06/03 11:34:45;;;;;;;16.08;14.93;;;20.70;37.00;;;;;;5013575;28;20197;-86
2023/06/03 11:37:11;;;;;;;16.20;15.10;;;20.50;37.80;;;;;;5013482;28;20663;-86
2023/06/03 11:40:06;;;;;;;15.93;15.02;;;20.30;39.40;;;;;;5012185;28;20561;-87
2023/06/03 11:42:46;;;;;;;16.85;15.85;;;20.30;37.40;;;;;;5013266;28;20227;-87
2023/06/03 11:45:21;;;;;;;16.85;15.75;;;20.30;38.20;;;;;;5015810;28;20153;-87
2023/06/03 11:47:48;;;;;;;16.98;15.88;;;20.30;39.20;;;;;;5012102;28;20176;-87
2023/06/03 11:50:14;;;;;;;17.00;15.80;;;20.30;37.20;;;;;;5012519;28;20663;-87
2023/06/03 11:52:40;;;;;;;17.60;16.50;;;20.30;39.20;;;;;;5013271;28;20247;-86
2023/06/03 11:55:06;;;;;;;17.70;15.98;;;20.00;40.60;;;;;;5011920;28;20197;-86
2023/06/03 11:57:33;;;;;;;16.80;15.80;;;20.00;39.40;;;;;;5012014;28;20169;-86
2023/06/03 11:59:58;;;;;;;17.60;16.40;;;20.40;39.50;;;;;;5013258;28;20177;-86
2023/06/03 12:02:24;;;;;;;17.40;16.13;;;20.50;37.50;;;;;;5011912;28;20675;-86
2023/06/03 12:04:50;;;;;;;16.75;15.75;;;20.80;38.50;;;;;;5013116;28;20272;-86
2023/06/03 12:07:15;;;;;;;17.10;15.90;;;20.90;38.00;;;;;;5012471;28;20170;-86
2023/06/03 12:09:42;;;;;;;16.45;15.35;;;21.00;36.50;;;;;;5011771;28;20173;-86
2023/06/03 12:12:08;;;;;;;16.60;15.40;;;21.20;37.30;;;;;;5011569;28;20563;-86
2023/06/03 12:14:37;;;;;;;16.40;15.40;;;21.20;37.60;;;;;;5011878;28;20174;-86
2023/06/03 12:17:09;;;;;;;16.63;15.43;;;21.30;38.60;;;;;;5011797;28;20177;-86
2023/06/03 12:19:37;;;;;;;16.10;15.07;;;21.50;38.80;;;;;;5011833;28;20308;-86
2023/06/03 12:22:03;;;;;;;17.13;15.90;;;21.40;37.00;;;;;;5011589;28;20220;-86
2023/06/03 12:24:30;;;;;;;16.42;15.15;;;21.30;38.20;;;;;;5015219;28;20181;-86
2023/06/03 12:27:09;;;;;;;16.60;15.50;;;21.50;38.00;;;;;;5017076;28;20296;-86
2023/06/03 12:29:43;;;;;;;16.52;15.23;;;21.60;38.90;;;;;;5017027;28;20252;-86
2023/06/03 12:32:09;;;;;;;16.60;15.50;;;21.10;37.80;;;;;;5016781;28;20192;-86
2023/06/03 12:34:36;;;;;;;15.68;14.63;;;21.10;37.40;;;;;;5016484;28;20170;-86
2023/06/03 12:37:03;;;;;;;16.80;15.57;;;21.20;37.20;;;;;;5015154;28;20664;-86
2023/06/03 12:39:43;;;;;;;15.82;14.82;;;21.00;37.10;;;;;;5015709;28;20174;-86
2023/06/03 12:42:10;;;;;;;16.38;15.10;;;20.80;39.20;;;;;;5016283;28;20271;-85
2023/06/03 12:44:47;;;;;;;16.45;15.35;;;21.00;39.60;;;;;;5015195;28;20184;-86